Time;durP1;ratioP1;P1;durP2;ratioP2;P2;SDS_P1;SDS_P2;PMS_P1;PMS_P2;Temp;Humidity;BMP_temperature;BMP_pressure;BME280_temperature;BME280_humidity;BME280_pressure;Samples;Min_cycle;Max_cycle;Signal;HPM_P1;HPM_P2
2023/04/03 00:00:44;;;;;;;;;;;2.40;83.00;;;;;;5030794;28;19941;-80
2023/04/03 00:03:09;;;;;;;;;;;2.20;83.30;;;;;;5048237;28;19944;-81
2023/04/03 00:05:35;;;;;;;;;;;2.20;83.50;;;;;;5028636;28;19924;-82
2023/04/03 00:08:01;;;;;;;;;;;2.20;83.30;;;;;;5030476;28;19921;-82
2023/04/03 00:10:27;;;;;;;;;;;2.10;83.30;;;;;;5045963;28;19981;-82
2023/04/03 00:12:53;;;;;;;;;;;2.10;83.60;;;;;;5041841;28;19925;-82
2023/04/03 00:15:18;;;;;;;;;;;2.10;83.50;;;;;;5027151;28;19924;-80
2023/04/03 00:17:44;;;;;;;;;;;2.10;83.70;;;;;;5029832;28;19945;-82
2023/04/03 00:20:09;;;;;;;;;;;2.10;83.70;;;;;;5026308;28;19996;-82
2023/04/03 00:22:35;;;;;;;;;;;2.00;83.80;;;;;;5023033;28;19915;-83
2023/04/03 00:25:00;;;;;;;;;;;2.00;83.60;;;;;;5025612;28;19981;-82
2023/04/03 00:27:26;;;;;;;;;;;2.00;83.80;;;;;;5023904;28;19932;-81
2023/04/03 00:29:51;;;;;;;;;;;2.00;83.80;;;;;;5024820;28;20442;-82
2023/04/03 00:32:17;;;;;;;;;;;2.00;84.00;;;;;;5022945;28;20032;-81
2023/04/03 00:34:42;;;;;;;;;;;2.00;84.00;;;;;;5025483;28;19913;-82
2023/04/03 00:37:08;;;;;;;;;;;2.10;84.20;;;;;;5032737;28;19913;-82
2023/04/03 00:39:33;;;;;;;;;;;2.30;84.30;;;;;;5021611;28;19913;-82
2023/04/03 00:41:58;;;;;;;;;;;2.50;84.10;;;;;;5028171;28;19913;-82
2023/04/03 00:44:33;;;;;;;;;;;2.50;83.80;;;;;;5014730;28;19913;-82
2023/04/03 00:46:59;;;;;;;;;;;2.70;83.10;;;;;;5026130;28;19914;-81
2023/04/03 00:49:25;;;;;;;;;;;2.70;82.90;;;;;;5036241;28;20403;-80
2023/04/03 00:51:50;;;;;;;;;;;2.80;82.20;;;;;;5029092;28;19921;-80
2023/04/03 00:54:16;;;;;;;;;;;2.80;82.60;;;;;;5023394;28;19917;-80
2023/04/03 00:56:42;;;;;;;;;;;2.90;82.10;;;;;;5028126;28;19985;-82
2023/04/03 00:59:10;;;;;;;;;;;2.80;81.90;;;;;;5030976;28;19967;-82
2023/04/03 01:01:37;;;;;;;;;;;2.80;81.60;;;;;;5028241;28;19917;-82
2023/04/03 01:04:02;;;;;;;;;;;2.90;81.90;;;;;;5023414;28;19914;-83
2023/04/03 01:06:31;;;;;;;;;;;2.80;81.70;;;;;;5029415;28;19937;-79
2023/04/03 01:08:57;;;;;;;;;;;2.70;81.70;;;;;;5029533;28;19917;-82
2023/04/03 01:11:23;;;;;;;;;;;2.70;82.30;;;;;;5031377;28;19920;-81
2023/04/03 01:13:49;;;;;;;;;;;2.60;82.00;;;;;;5028401;28;19902;-82
2023/04/03 01:16:14;;;;;;;;;;;2.50;81.80;;;;;;5026114;28;19914;-80
2023/04/03 01:18:40;;;;;;;;;;;2.50;82.60;;;;;;5027123;23;19933;-81
2023/04/03 01:21:30;;;;;;;;;;;2.60;82.80;;;;;;4997709;28;20001;-81
2023/04/03 01:24:01;;;;;;;;;;;2.60;82.30;;;;;;4983468;28;19937;-80
2023/04/03 01:26:28;;;;;;;;;;;2.60;81.90;;;;;;5001856;28;19949;-81
2023/04/03 01:28:54;;;;;;;;;;;2.60;82.00;;;;;;4982150;28;19914;-82
2023/04/03 01:31:24;;;;;;;;;;;2.50;82.10;;;;;;5011015;28;19938;-79
2023/04/03 01:33:49;;;;;;;;;;;2.60;82.20;;;;;;4981665;28;19921;-81
2023/04/03 01:36:17;;;;;;;;;;;2.50;82.50;;;;;;4978034;28;19922;-82
2023/04/03 01:38:43;;;;;;;;;;;2.50;82.60;;;;;;4981604;28;19993;-81
2023/04/03 01:41:08;;;;;;;;;;;2.60;82.40;;;;;;4985218;28;20323;-81
2023/04/03 01:43:34;;;;;;;;;;;2.60;82.30;;;;;;4971401;28;20001;-80
2023/04/03 01:45:59;;;;;;;;;;;2.50;82.20;;;;;;4978078;28;19918;-82
2023/04/03 01:48:25;;;;;;;;;;;2.50;82.10;;;;;;5023109;28;19910;-80
2023/04/03 01:50:50;;;;;;;;;;;2.60;82.00;;;;;;5009936;28;19973;-81
2023/04/03 01:53:16;;;;;;;;;;;2.50;82.10;;;;;;4980013;28;19974;-82
2023/04/03 01:55:41;;;;;;;;;;;2.50;82.10;;;;;;4992577;28;19914;-80
2023/04/03 01:58:07;;;;;;;;;;;2.50;82.10;;;;;;4974958;28;19964;-80
2023/04/03 02:00:32;;;;;;;;;;;2.50;81.90;;;;;;4978278;28;19921;-80
2023/04/03 02:02:58;;;;;;;;;;;2.40;82.20;;;;;;5008317;28;19910;-80
2023/04/03 02:05:23;;;;;;;;;;;2.60;81.30;;;;;;4980436;28;20271;-81
2023/04/03 02:07:49;;;;;;;;;;;2.50;81.40;;;;;;4976524;28;19914;-81
2023/04/03 02:10:14;;;;;;;;;;;2.50;81.40;;;;;;5010880;28;19914;-81
2023/04/03 02:12:40;;;;;;;;;;;2.50;81.50;;;;;;5009422;28;19921;-81
2023/04/03 02:15:06;;;;;;;;;;;2.50;80.80;;;;;;4975019;28;20422;-81
2023/04/03 02:17:31;;;;;;;;;;;2.40;81.00;;;;;;4980738;28;19922;-81
2023/04/03 02:19:57;;;;;;;;;;;2.50;81.20;;;;;;4981583;28;20188;-82
2023/04/03 02:22:23;;;;;;;;;;;2.40;81.40;;;;;;5010890;28;19922;-81
2023/04/03 02:24:48;;;;;;;;;;;2.40;81.60;;;;;;4975021;28;19915;-80
2023/04/03 02:27:14;;;;;;;;;;;2.40;81.60;;;;;;5000966;28;19929;-81
2023/04/03 02:29:40;;;;;;;;;;;2.50;81.10;;;;;;5016971;28;19946;-81
2023/04/03 02:32:05;;;;;;;;;;;2.50;79.60;;;;;;5013935;28;20001;-81
2023/04/03 02:34:31;;;;;;;;;;;2.70;79.20;;;;;;4983311;28;19993;-81
2023/04/03 02:36:56;;;;;;;;;;;2.60;79.40;;;;;;5007446;28;20362;-81
2023/04/03 02:39:22;;;;;;;;;;;2.60;79.20;;;;;;4973839;28;19920;-81
2023/04/03 02:41:47;;;;;;;;;;;2.50;79.40;;;;;;5003383;28;19918;-81
2023/04/03 02:44:13;;;;;;;;;;;2.50;79.10;;;;;;4971618;28;19922;-80
2023/04/03 02:46:38;;;;;;;;;;;2.50;79.20;;;;;;5003657;28;19929;-80
2023/04/03 02:49:04;;;;;;;;;;;2.50;79.20;;;;;;4977093;28;19922;-80
2023/04/03 02:51:30;;;;;;;;;;;2.40;79.50;;;;;;5002306;28;20045;-80
2023/04/03 02:53:55;;;;;;;;;;;2.40;80.10;;;;;;4991595;28;19915;-80
2023/04/03 02:56:21;;;;;;;;;;;2.30;80.30;;;;;;4975370;28;20000;-80
2023/04/03 02:58:47;;;;;;;;;;;2.20;80.60;;;;;;4977052;28;20013;-80
2023/04/03 03:01:13;;;;;;;;;;;2.20;80.60;;;;;;4997445;28;19993;-79
2023/04/03 03:03:39;;;;;;;;;;;2.10;80.50;;;;;;5012545;28;19973;-78
2023/04/03 03:06:05;;;;;;;;;;;2.10;80.70;;;;;;5030790;28;19906;-78
2023/04/03 03:08:31;;;;;;;;;;;1.90;80.90;;;;;;4989018;28;19929;-81
2023/04/03 03:10:57;;;;;;;;;;;1.90;80.90;;;;;;4978470;28;19914;-81
2023/04/03 03:13:22;;;;;;;;;;;1.80;80.90;;;;;;4990689;28;19921;-83
2023/04/03 03:15:48;;;;;;;;;;;1.80;80.20;;;;;;4987912;28;19998;-80
2023/04/03 03:18:13;;;;;;;;;;;1.80;80.20;;;;;;5004105;28;19929;-82
2023/04/03 03:20:39;;;;;;;;;;;1.80;80.40;;;;;;4995404;28;19902;-81
2023/04/03 03:23:04;;;;;;;;;;;1.70;80.60;;;;;;5026162;28;19918;-80
2023/04/03 03:25:30;;;;;;;;;;;1.90;80.20;;;;;;4996601;28;19910;-80
2023/04/03 03:27:55;;;;;;;;;;;1.90;79.90;;;;;;4990160;28;19914;-80
2023/04/03 03:30:21;;;;;;;;;;;1.80;79.80;;;;;;4989468;28;19949;-81
2023/04/03 03:32:46;;;;;;;;;;;1.80;80.40;;;;;;5007788;28;19918;-80
2023/04/03 03:35:12;;;;;;;;;;;1.80;80.10;;;;;;4991618;28;20553;-81
2023/04/03 03:37:37;;;;;;;;;;;1.70;79.90;;;;;;4965511;28;19914;-81
2023/04/03 03:40:03;;;;;;;;;;;1.60;80.20;;;;;;4990914;28;20040;-80
2023/04/03 03:42:28;;;;;;;;;;;1.60;80.10;;;;;;4989807;28;19914;-80
2023/04/03 03:44:54;;;;;;;;;;;1.60;80.30;;;;;;5008423;28;19914;-81
2023/04/03 03:47:20;;;;;;;;;;;1.70;80.20;;;;;;4980997;28;20389;-80
2023/04/03 03:49:45;;;;;;;;;;;1.70;80.10;;;;;;4979988;28;19914;-80
2023/04/03 03:52:11;;;;;;;;;;;1.70;80.30;;;;;;4976749;28;19918;-79
2023/04/03 03:54:37;;;;;;;;;;;1.60;80.10;;;;;;5007623;28;19921;-81
2023/04/03 03:57:03;;;;;;;;;;;1.70;80.30;;;;;;4979614;28;19925;-80
2023/04/03 03:59:28;;;;;;;;;;;1.60;80.40;;;;;;5012382;28;19910;-81
2023/04/03 04:01:54;;;;;;;;;;;1.60;80.20;;;;;;5011377;28;20349;-81
2023/04/03 04:04:20;;;;;;;;;;;1.60;80.00;;;;;;5010941;28;19918;-80
2023/04/03 04:06:45;;;;;;;;;;;1.50;80.10;;;;;;4978297;28;19922;-79
2023/04/03 04:09:11;;;;;;;;;;;1.40;80.20;;;;;;4977685;28;20263;-81
2023/04/03 04:11:36;;;;;;;;;;;1.40;80.50;;;;;;4977848;28;20387;-80
2023/04/03 04:14:02;;;;;;;;;;;1.50;80.80;;;;;;4977153;28;19961;-80
2023/04/03 04:16:27;;;;;;;;;;;1.40;80.50;;;;;;4980210;28;19914;-81
2023/04/03 04:18:53;;;;;;;;;;;1.40;80.60;;;;;;4977230;28;21700;-80
2023/04/03 04:21:19;;;;;;;;;;;1.40;80.90;;;;;;4978242;28;19923;-80
2023/04/03 04:23:44;;;;;;;;;;;1.50;81.30;;;;;;4977520;28;19918;-80
2023/04/03 04:26:10;;;;;;;;;;;1.50;80.80;;;;;;4978656;28;19918;-82
2023/04/03 04:28:35;;;;;;;;;;;1.40;80.90;;;;;;4979579;28;20008;-82
2023/04/03 04:31:01;;;;;;;;;;;1.60;80.70;;;;;;4987378;28;19911;-82
2023/04/03 04:33:26;;;;;;;;;;;1.50;80.60;;;;;;5011607;28;19920;-79
2023/04/03 04:35:52;;;;;;;;;;;1.60;80.60;;;;;;4972642;28;19918;-83
2023/04/03 04:38:17;;;;;;;;;;;1.50;80.20;;;;;;4977122;28;20326;-80
2023/04/03 04:40:42;;;;;;;;;;;1.40;80.30;;;;;;5009325;28;19938;-80
2023/04/03 04:43:08;;;;;;;;;;;1.30;80.50;;;;;;4989853;28;19998;-82
2023/04/03 04:45:34;;;;;;;;;;;1.30;81.20;;;;;;5014312;28;19914;-82
2023/04/03 04:47:59;;;;;;;;;;;1.30;80.80;;;;;;4983942;28;20456;-82
2023/04/03 04:50:25;;;;;;;;;;;1.30;80.80;;;;;;5007265;28;19924;-82
2023/04/03 04:52:50;;;;;;;;;;;1.30;80.40;;;;;;5009679;28;19914;-82
2023/04/03 04:55:16;;;;;;;;;;;1.30;81.00;;;;;;4974680;28;19921;-80
2023/04/03 04:57:41;;;;;;;;;;;1.30;80.50;;;;;;5012867;28;19934;-81
2023/04/03 05:00:07;;;;;;;;;;;1.20;80.80;;;;;;5013891;28;20009;-81
2023/04/03 05:02:33;;;;;;;;;;;1.20;81.30;;;;;;4980973;28;20314;-82
2023/04/03 05:04:58;;;;;;;;;;;1.10;81.00;;;;;;4989054;28;19910;-81
2023/04/03 05:07:24;;;;;;;;;;;1.10;81.00;;;;;;4998465;28;19914;-81
2023/04/03 05:09:50;;;;;;;;;;;1.10;81.50;;;;;;4979871;28;20000;-80
2023/04/03 05:12:15;;;;;;;;;;;1.10;81.30;;;;;;4985156;28;19971;-82
2023/04/03 05:14:41;;;;;;;;;;;1.10;81.50;;;;;;4975571;28;19925;-81
2023/04/03 05:17:07;;;;;;;;;;;1.10;81.20;;;;;;4970538;28;19918;-81
2023/04/03 05:19:32;;;;;;;;;;;1.20;82.00;;;;;;4965036;28;20468;-81
2023/04/03 05:21:57;;;;;;;;;;;1.40;81.50;;;;;;4964739;28;20385;-80
2023/04/03 05:24:23;;;;;;;;;;;1.50;81.10;;;;;;4982620;28;19957;-80
2023/04/03 05:26:48;;;;;;;;;;;1.50;81.10;;;;;;4979964;28;19958;-80
2023/04/03 05:29:14;;;;;;;;;;;1.70;80.10;;;;;;4979115;28;20000;-82
2023/04/03 05:31:39;;;;;;;;;;;1.60;80.50;;;;;;4960169;28;19973;-82
2023/04/03 05:34:05;;;;;;;;;;;1.60;80.50;;;;;;4962317;28;19922;-82
2023/04/03 05:36:31;;;;;;;;;;;1.60;80.40;;;;;;4977713;28;19929;-81
2023/04/03 05:38:56;;;;;;;;;;;1.50;80.30;;;;;;4962887;28;19918;-82
2023/04/03 05:41:22;;;;;;;;;;;1.40;80.30;;;;;;4987156;28;19914;-82
2023/04/03 05:43:47;;;;;;;;;;;1.40;80.50;;;;;;4960295;28;20482;-82
2023/04/03 05:46:14;;;;;;;;;;;1.50;81.00;;;;;;4982010;28;19914;-83
2023/04/03 05:48:40;;;;;;;;;;;1.60;80.90;;;;;;4952558;28;19914;-82
2023/04/03 05:51:06;;;;;;;;;;;1.60;80.30;;;;;;4963190;28;20231;-82
2023/04/03 05:53:35;;;;;;;;;;;1.60;79.80;;;;;;4962060;28;20016;-83
2023/04/03 05:56:01;;;;;;;;;;;1.70;79.80;;;;;;4975082;28;19949;-84
2023/04/03 05:58:26;;;;;;;;;;;1.80;79.30;;;;;;4961392;28;19917;-84
2023/04/03 06:00:51;;;;;;;;;;;1.60;80.10;;;;;;4967131;28;19983;-81
2023/04/03 06:03:17;;;;;;;;;;;1.70;80.30;;;;;;4965386;28;19914;-83
2023/04/03 06:05:43;;;;;;;;;;;1.70;80.40;;;;;;4961878;28;19937;-82
2023/04/03 06:08:08;;;;;;;;;;;1.70;80.10;;;;;;4961906;28;19910;-82
2023/04/03 06:10:35;;;;;;;;;;;1.90;79.50;;;;;;4964594;28;19973;-82
2023/04/03 06:13:00;;;;;;;;;;;1.80;79.30;;;;;;4972484;28;19949;-82
2023/04/03 06:15:26;;;;;;;;;;;1.70;79.80;;;;;;4997520;28;19914;-81
2023/04/03 06:17:51;;;;;;;;;;;1.60;80.00;;;;;;5009456;28;19918;-82
2023/04/03 06:20:17;;;;;;;;;;;1.50;80.40;;;;;;4985428;28;19957;-81
2023/04/03 06:22:42;;;;;;;;;;;1.60;80.10;;;;;;4991822;28;20048;-80
2023/04/03 06:25:09;;;;;;;;;;;1.50;80.10;;;;;;5008626;28;19922;-83
2023/04/03 06:27:34;;;;;;;;;;;1.60;79.20;;;;;;4977240;28;19969;-82
2023/04/03 06:30:00;;;;;;;;;;;1.60;79.70;;;;;;4992932;28;20358;-83
2023/04/03 06:32:26;;;;;;;;;;;1.50;80.00;;;;;;4979871;28;20334;-82
2023/04/03 06:34:53;;;;;;;;;;;1.50;80.40;;;;;;4971807;28;19921;-80
2023/04/03 06:37:19;;;;;;;;;;;1.60;80.00;;;;;;4973689;28;20743;-81
2023/04/03 06:39:45;;;;;;;;;;;1.70;79.70;;;;;;4971874;28;20321;-80
2023/04/03 06:42:11;;;;;;;;;;;1.60;79.10;;;;;;4989390;28;19910;-80
2023/04/03 06:44:37;;;;;;;;;;;1.60;79.80;;;;;;5005164;28;19960;-83
2023/04/03 06:47:02;;;;;;;;;;;1.70;79.40;;;;;;4973758;28;20274;-83
2023/04/03 06:49:28;;;;;;;;;;;1.60;78.90;;;;;;5005915;28;19914;-82
2023/04/03 06:51:54;;;;;;;;;;;1.80;78.30;;;;;;4989379;28;19929;-82
2023/04/03 06:54:20;;;;;;;;;;;1.80;78.70;;;;;;4964166;28;19914;-81
2023/04/03 06:56:45;;;;;;;;;;;1.90;79.20;;;;;;4971820;28;19914;-83
2023/04/03 06:59:12;;;;;;;;;;;1.90;77.90;;;;;;5005116;28;20289;-82
2023/04/03 07:01:38;;;;;;;;;;;1.80;77.80;;;;;;4978081;28;19969;-84
2023/04/03 07:04:03;;;;;;;;;;;1.90;78.00;;;;;;5004071;28;20285;-84
2023/04/03 07:06:30;;;;;;;;;;;1.90;77.30;;;;;;5002657;28;19914;-89
2023/04/03 07:08:59;;;;;;;;;;;1.80;77.10;;;;;;4964536;28;20004;-90
2023/04/03 07:11:26;;;;;;;;;;;1.90;77.50;;;;;;4998096;28;19990;-86
2023/04/03 07:13:54;;;;;;;;;;;1.90;77.60;;;;;;4973592;28;19914;-85
2023/04/03 07:16:21;;;;;;;;;;;2.00;78.60;;;;;;5007746;28;19933;-86
2023/04/03 07:18:48;;;;;;;;;;;2.10;78.20;;;;;;4977401;28;19931;-83
2023/04/03 07:21:14;;;;;;;;;;;2.10;77.70;;;;;;4977696;28;19914;-83
2023/04/03 07:23:39;;;;;;;;;;;2.10;76.90;;;;;;4953365;28;19914;-84
2023/04/03 07:26:07;;;;;;;;;;;2.10;76.80;;;;;;4957158;28;19918;-84
2023/04/03 07:28:33;;;;;;;;;;;2.20;78.20;;;;;;4966214;28;19911;-85
2023/04/03 07:31:07;;;;;;;;;;;2.30;77.40;;;;;;4954567;28;20033;-85
2023/04/03 07:33:34;;;;;;;;;;;2.30;76.70;;;;;;4961364;28;19914;-86
2023/04/03 07:36:02;;;;;;;;;;;2.30;76.70;;;;;;4959893;28;20453;-85
2023/04/03 07:38:29;;;;;;;;;;;2.40;77.40;;;;;;4973954;28;19910;-86
2023/04/03 07:40:59;;;;;;;;;;;2.40;76.10;;;;;;4954507;28;20285;-85
2023/04/03 07:43:27;;;;;;;;;;;2.50;77.20;;;;;;4959072;28;19917;-83
2023/04/03 07:45:59;;;;;;;;;;;2.60;76.90;;;;;;4965307;28;19914;-84
2023/04/03 07:48:25;;;;;;;;;;;2.80;76.40;;;;;;4956901;28;19914;-85
2023/04/03 07:50:52;;;;;;;;;;;2.70;74.20;;;;;;4940485;29;19910;-86
2023/04/03 07:53:19;;;;;;;;;;;2.60;74.20;;;;;;4954846;28;19918;-87
2023/04/03 07:55:58;;;;;;;;;;;2.80;75.90;;;;;;4962540;28;20378;-84
2023/04/03 07:58:27;;;;;;;;;;;2.70;74.00;;;;;;4959431;28;19910;-85
2023/04/03 08:00:57;;;;;;;;;;;2.90;74.80;;;;;;4989773;28;20004;-86
2023/04/03 08:03:23;;;;;;;;;;;3.00;75.20;;;;;;4959757;28;19977;-87
2023/04/03 08:06:21;;;;;;;;;;;2.90;74.80;;;;;;4974900;28;19914;-86
2023/04/03 08:09:09;;;;;;;;;;;3.00;73.90;;;;;;4968629;28;20354;-84
2023/04/03 08:11:36;;;;;;;;;;;3.00;73.60;;;;;;4975170;28;19925;-85
2023/04/03 08:14:15;;;;;;;;;;;3.10;74.40;;;;;;4954944;28;20123;-86
2023/04/03 08:17:03;;;;;;;;;;;3.20;73.40;;;;;;4955637;28;19914;-84
2023/04/03 08:19:44;;;;;;;;;;;3.30;73.40;;;;;;4978757;28;19918;-87
2023/04/03 08:22:10;;;;;;;;;;;3.30;72.70;;;;;;4993961;28;19980;-85
2023/04/03 08:24:44;;;;;;;;;;;3.50;72.50;;;;;;4998799;28;19906;-82
2023/04/03 08:27:19;;;;;;;;;;;3.30;71.80;;;;;;5039776;28;19918;-85
2023/04/03 08:29:45;;;;;;;;;;;3.30;71.50;;;;;;5038241;28;19921;-85
2023/04/03 08:32:13;;;;;;;;;;;3.40;72.60;;;;;;4988687;28;19971;-88
2023/04/03 08:35:07;;;;;;;;;;;3.50;71.10;;;;;;4985104;28;19915;-84
2023/04/03 08:37:37;;;;;;;;;;;3.50;70.70;;;;;;4998257;28;19922;-86
2023/04/03 08:40:03;;;;;;;;;;;3.60;70.00;;;;;;5011357;28;19918;-86
2023/04/03 08:43:07;;;;;;;;;;;3.60;70.30;;;;;;5024550;28;19924;-85
2023/04/03 08:45:41;;;;;;;;;;;3.80;72.70;;;;;;4972719;28;20358;-81
2023/04/03 08:48:12;;;;;;;;;;;4.00;68.20;;;;;;4977893;28;19954;-83
2023/04/03 08:50:46;;;;;;;;;;;4.00;68.50;;;;;;4991829;28;19921;-83
2023/04/03 08:53:16;;;;;;;;;;;3.80;68.40;;;;;;4977776;28;19981;-83
2023/04/03 08:55:49;;;;;;;;;;;3.80;66.60;;;;;;4986034;28;19941;-85
2023/04/03 08:58:47;;;;;;;;;;;3.90;67.70;;;;;;4992959;28;19917;-84
2023/04/03 09:01:33;;;;;;;;;;;3.90;66.10;;;;;;4978629;28;19985;-85
2023/04/03 09:04:00;;;;;;;;;;;4.00;69.40;;;;;;4985924;28;19918;-83
2023/04/03 09:06:30;;;;;;;;;;;4.20;68.20;;;;;;4973279;28;19914;-86
2023/04/03 09:09:26;;;;;;;;;;;4.30;64.80;;;;;;5002583;28;19980;-88
2023/04/03 09:12:15;;;;;;;;;;;4.30;63.70;;;;;;4976851;28;20578;-83
2023/04/03 09:14:55;;;;;;;;;;;4.50;65.10;;;;;;4958743;28;19914;-81
2023/04/03 09:17:24;;;;;;;;;;;4.60;62.90;;;;;;4977576;28;19969;-85
2023/04/03 09:19:54;;;;;;;;;;;4.60;62.80;;;;;;4979066;28;19925;-84
2023/04/03 09:22:19;;;;;;;;;;;4.60;61.00;;;;;;4956060;28;19929;-82
2023/04/03 09:24:46;;;;;;;;;;;4.50;61.50;;;;;;4996608;28;19913;-85
2023/04/03 09:27:12;;;;;;;;;;;4.70;61.20;;;;;;4960607;28;20453;-84
2023/04/03 09:29:43;;;;;;;;;;;4.70;64.00;;;;;;4987975;28;19922;-83
2023/04/03 09:32:18;;;;;;;;;;;4.70;61.40;;;;;;4999425;28;19918;-85
2023/04/03 09:34:43;;;;;;;;;;;4.70;59.70;;;;;;4977729;28;20593;-83
2023/04/03 09:37:09;;;;;;;;;;;4.70;61.10;;;;;;4990178;28;19914;-81
2023/04/03 09:39:51;;;;;;;;;;;4.90;63.40;;;;;;4990173;28;19921;-84
2023/04/03 09:42:19;;;;;;;;;;;5.00;58.60;;;;;;4976893;28;19918;-86
2023/04/03 09:44:52;;;;;;;;;;;5.20;62.30;;;;;;4964206;28;19922;-84
2023/04/03 09:47:30;;;;;;;;;;;5.30;62.30;;;;;;4960152;28;19910;-84
2023/04/03 09:50:14;;;;;;;;;;;5.40;59.40;;;;;;4975938;28;19918;-86
2023/04/03 09:52:44;;;;;;;;;;;5.30;57.60;;;;;;4989583;28;20328;-84
2023/04/03 09:55:26;;;;;;;;;;;5.20;60.20;;;;;;4956739;28;20326;-83
2023/04/03 09:57:59;;;;;;;;;;;5.20;59.10;;;;;;4957882;28;19926;-87
2023/04/03 10:00:31;;;;;;;;;;;5.30;60.60;;;;;;4956039;28;19918;-83
2023/04/03 10:02:57;;;;;;;;;;;5.30;61.00;;;;;;4953759;28;20006;-86
2023/04/03 10:05:32;;;;;;;;;;;5.50;60.30;;;;;;4973592;28;19953;-85
2023/04/03 10:08:19;;;;;;;;;;;5.50;59.30;;;;;;4987572;28;19918;-83
2023/04/03 10:10:46;;;;;;;;;;;5.30;58.70;;;;;;4976934;28;19961;-84
2023/04/03 10:13:14;;;;;;;;;;;5.50;57.50;;;;;;4956042;28;19965;-81
2023/04/03 10:15:42;;;;;;;;;;;5.50;59.80;;;;;;4966416;28;19923;-82
2023/04/03 10:18:28;;;;;;;;;;;5.60;57.30;;;;;;4966592;28;19925;-85
2023/04/03 10:20:55;;;;;;;;;;;5.70;59.80;;;;;;4962354;28;19914;-84
2023/04/03 10:23:21;;;;;;;;;;;5.60;57.20;;;;;;4974254;28;19918;-83
2023/04/03 10:25:49;;;;;;;;;;;5.60;54.90;;;;;;4984074;28;19914;-84
2023/04/03 10:28:35;;;;;;;;;;;5.70;54.90;;;;;;4978711;28;21289;-84
2023/04/03 10:31:11;;;;;;;;;;;5.60;56.40;;;;;;4959766;28;19914;-82
2023/04/03 10:33:47;;;;;;;;;;;5.80;59.10;;;;;;4976034;28;20286;-83
2023/04/03 10:36:18;;;;;;;;;;;5.90;56.40;;;;;;4982167;28;19910;-81
2023/04/03 10:38:47;;;;;;;;;;;5.80;55.30;;;;;;4971042;28;20013;-82
2023/04/03 10:41:39;;;;;;;;;;;5.90;52.70;;;;;;4973894;28;19926;-84
2023/04/03 10:44:12;;;;;;;;;;;6.00;56.30;;;;;;4955556;28;19910;-82
2023/04/03 10:46:40;;;;;;;;;;;6.10;53.80;;;;;;4961961;28;19914;-84
2023/04/03 10:49:25;;;;;;;;;;;6.00;56.50;;;;;;4960268;28;19925;-82
2023/04/03 10:51:55;;;;;;;;;;;6.20;53.50;;;;;;4954129;28;19985;-83
2023/04/03 10:54:26;;;;;;;;;;;6.10;53.10;;;;;;4990752;28;19910;-82
2023/04/03 10:56:54;;;;;;;;;;;6.20;53.20;;;;;;4966867;28;19914;-85
2023/04/03 10:59:26;;;;;;;;;;;6.20;51.50;;;;;;4968818;28;20378;-82
2023/04/03 11:01:55;;;;;;;;;;;6.20;51.50;;;;;;4953884;28;19914;-84
2023/04/03 11:04:21;;;;;;;;;;;6.10;51.90;;;;;;4975498;28;20005;-83
2023/04/03 11:06:57;;;;;;;;;;;6.10;54.10;;;;;;4989296;28;20031;-85
2023/04/03 11:09:26;;;;;;;;;;;6.30;55.80;;;;;;4958422;28;19921;-86
2023/04/03 11:11:54;;;;;;;;;;;6.60;54.80;;;;;;4954636;28;19965;-85
2023/04/03 11:14:20;;;;;;;;;;;6.50;51.60;;;;;;4985779;28;19914;-83
2023/04/03 11:16:47;;;;;;;;;;;6.50;53.50;;;;;;4994074;28;20303;-85
2023/04/03 11:19:21;;;;;;;;;;;6.60;52.30;;;;;;4976675;28;19918;-83
2023/04/03 11:22:02;;;;;;;;;;;6.60;52.80;;;;;;4976520;28;19918;-83
2023/04/03 11:24:29;;;;;;;;;;;6.80;53.10;;;;;;5004492;28;19914;-83
2023/04/03 11:26:55;;;;;;;;;;;6.90;53.00;;;;;;5009657;28;19918;-84
2023/04/03 11:29:31;;;;;;;;;;;6.90;51.70;;;;;;4979229;28;19914;-82
2023/04/03 11:32:05;;;;;;;;;;;6.70;52.30;;;;;;4976884;28;19981;-84
2023/04/03 11:34:43;;;;;;;;;;;6.70;51.40;;;;;;5013435;28;19953;-84
2023/04/03 11:37:15;;;;;;;;;;;6.90;53.20;;;;;;4961573;28;19921;-85
2023/04/03 11:39:47;;;;;;;;;;;6.90;52.00;;;;;;5005698;28;19914;-84
2023/04/03 11:42:15;;;;;;;;;;;7.00;51.40;;;;;;4977268;28;20281;-84
2023/04/03 11:44:41;;;;;;;;;;;7.00;50.10;;;;;;4980895;28;20001;-85
2023/04/03 11:47:08;;;;;;;;;;;7.00;50.80;;;;;;4994358;28;20009;-84
2023/04/03 11:49:53;;;;;;;;;;;6.90;49.80;;;;;;5002923;28;19910;-84
2023/04/03 11:52:37;;;;;;;;;;;6.90;50.10;;;;;;4992984;28;20283;-85
2023/04/03 11:55:22;;;;;;;;;;;6.90;50.00;;;;;;5009732;28;19914;-85
2023/04/03 11:57:51;;;;;;;;;;;7.20;52.80;;;;;;5010244;28;20423;-84
2023/04/03 12:00:36;;;;;;;;;;;7.30;51.70;;;;;;5014437;28;19938;-86
2023/04/03 12:03:01;;;;;;;;;;;7.30;49.30;;;;;;5000865;28;19914;-82
2023/04/03 12:05:28;;;;;;;;;;;7.10;49.70;;;;;;5022561;28;19961;-85
2023/04/03 12:08:12;;;;;;;;;;;7.10;50.40;;;;;;5009750;28;20013;-85
2023/04/03 12:10:38;;;;;;;;;;;7.10;47.90;;;;;;5010191;28;19914;-83
2023/04/03 12:13:13;;;;;;;;;;;7.20;51.50;;;;;;5008457;28;20388;-83
2023/04/03 12:15:39;;;;;;;;;;;7.30;49.10;;;;;;5009233;28;19921;-83
2023/04/03 12:18:25;;;;;;;;;;;7.40;50.90;;;;;;5000554;28;19949;-84
2023/04/03 12:20:55;;;;;;;;;;;7.20;47.90;;;;;;4971563;28;19918;-81
2023/04/03 12:23:26;;;;;;;;;;;7.00;47.10;;;;;;4974798;28;20408;-83
2023/04/03 12:25:51;;;;;;;;;;;7.00;47.30;;;;;;5004158;28;19997;-85
2023/04/03 12:28:17;;;;;;;;;;;7.20;48.30;;;;;;5006939;28;19941;-83
2023/04/03 12:30:43;;;;;;;;;;;7.30;48.20;;;;;;4993276;28;19914;-88
2023/04/03 12:33:32;;;;;;;;;;;7.30;47.90;;;;;;5010007;28;19914;-85
2023/04/03 12:36:26;;;;;;;;;;;7.30;46.90;;;;;;4974396;28;20020;-85
2023/04/03 12:39:01;;;;;;;;;;;7.20;47.50;;;;;;5005239;28;19957;-83
2023/04/03 12:41:26;;;;;;;;;;;7.30;49.00;;;;;;4974223;28;20313;-86
2023/04/03 12:44:07;;;;;;;;;;;7.30;49.40;;;;;;4993654;28;19942;-84
2023/04/03 12:46:43;;;;;;;;;;;7.30;46.80;;;;;;4977368;28;19914;-81
2023/04/03 12:49:22;;;;;;;;;;;7.30;50.20;;;;;;5005527;28;19917;-84
2023/04/03 12:51:48;;;;;;;;;;;7.20;48.50;;;;;;4976361;28;19918;-81
2023/04/03 12:54:13;;;;;;;;;;;7.40;49.00;;;;;;4976600;28;20389;-79
2023/04/03 12:56:39;;;;;;;;;;;7.40;48.70;;;;;;5007557;28;19921;-85
2023/04/03 12:59:14;;;;;;;;;;;7.30;47.80;;;;;;4977294;28;20009;-85
2023/04/03 13:01:40;;;;;;;;;;;7.30;46.40;;;;;;5011282;28;20393;-81
2023/04/03 13:04:11;;;;;;;;;;;7.50;49.10;;;;;;5003147;28;19914;-85
2023/04/03 13:06:43;;;;;;;;;;;7.70;49.20;;;;;;4979613;28;19922;-80
2023/04/03 13:09:27;;;;;;;;;;;7.60;47.00;;;;;;4979441;28;19911;-83
2023/04/03 13:11:59;;;;;;;;;;;7.60;47.30;;;;;;5012451;28;19921;-83
2023/04/03 13:14:28;;;;;;;;;;;7.40;48.10;;;;;;4992987;28;19918;-82
2023/04/03 13:16:57;;;;;;;;;;;7.30;47.40;;;;;;4977238;28;19921;-83
2023/04/03 13:19:55;;;;;;;;;;;7.50;49.90;;;;;;5014958;22;20418;-85
2023/04/03 13:22:29;;;;;;;;;;;7.40;46.70;;;;;;4988187;28;19918;-84
2023/04/03 13:24:57;;;;;;;;;;;7.30;47.40;;;;;;5044458;28;19910;-84
2023/04/03 13:27:23;;;;;;;;;;;7.40;49.00;;;;;;5031729;28;19910;-84
2023/04/03 13:29:53;;;;;;;;;;;7.40;48.90;;;;;;5037305;28;19976;-84
2023/04/03 13:32:26;;;;;;;;;;;7.50;47.30;;;;;;5023071;28;19929;-85
2023/04/03 13:35:04;;;;;;;;;;;7.50;48.10;;;;;;5031816;28;19919;-84
2023/04/03 13:37:31;;;;;;;;;;;7.50;47.70;;;;;;5035034;28;19916;-83
2023/04/03 13:40:02;;;;;;;;;;;7.50;48.90;;;;;;5037930;28;19909;-83
2023/04/03 13:42:36;;;;;;;;;;;7.40;47.90;;;;;;5048154;28;19913;-84
2023/04/03 13:45:10;;;;;;;;;;;7.50;48.60;;;;;;5039863;28;19914;-82
2023/04/03 13:47:40;;;;;;;;;;;7.60;50.10;;;;;;5043222;28;19928;-82
2023/04/03 13:50:11;;;;;;;;;;;7.60;49.00;;;;;;5041524;28;20374;-82
2023/04/03 13:52:42;;;;;;;;;;;7.50;48.40;;;;;;5042125;28;19989;-82
2023/04/03 13:55:17;;;;;;;;;;;7.50;49.30;;;;;;5042664;28;19916;-83
2023/04/03 13:57:53;;;;;;;;;;;7.60;49.60;;;;;;5039543;28;19915;-84
2023/04/03 14:00:30;;;;;;;;;;;7.60;48.40;;;;;;5038112;28;20052;-82
2023/04/03 14:02:56;;;;;;;;;;;7.60;48.90;;;;;;5039966;28;19913;-82
2023/04/03 14:05:23;;;;;;;;;;;7.50;49.50;;;;;;5041510;28;19924;-83
2023/04/03 14:07:48;;;;;;;;;;;7.60;51.70;;;;;;5039525;28;19953;-82
2023/04/03 14:10:14;;;;;;;;;;;7.70;50.00;;;;;;5040862;28;20406;-82
2023/04/03 14:12:40;;;;;;;;;;;7.60;50.10;;;;;;5030061;28;19917;-82
2023/04/03 14:15:17;;;;;;;;;;;7.80;49.90;;;;;;5036777;28;19936;-82
2023/04/03 14:17:43;;;;;;;;;;;7.80;46.50;;;;;;5041186;28;19921;-85
2023/04/03 14:20:20;;;;;;;;;;;7.70;47.10;;;;;;5038808;28;19917;-83
2023/04/03 14:22:46;;;;;;;;;;;7.60;47.40;;;;;;5044064;28;20338;-84
2023/04/03 14:25:11;;;;;;;;;;;7.50;46.90;;;;;;5044993;28;19921;-81
2023/04/03 14:27:41;;;;;;;;;;;7.50;49.60;;;;;;5050526;28;19913;-81
2023/04/03 14:30:09;;;;;;;;;;;7.70;50.00;;;;;;5047987;28;19975;-82
2023/04/03 14:32:34;;;;;;;;;;;7.60;47.60;;;;;;5045467;28;19921;-81
2023/04/03 14:35:00;;;;;;;;;;;7.60;49.70;;;;;;5044587;28;19913;-81
2023/04/03 14:37:27;;;;;;;;;;;7.80;49.20;;;;;;5041715;28;19920;-83
2023/04/03 14:39:53;;;;;;;;;;;7.60;48.70;;;;;;5045550;28;19961;-82
2023/04/03 14:42:20;;;;;;;;;;;7.60;49.70;;;;;;5047154;28;19920;-85